sensor_id;sensor_type;location;lat;lon;timestamp;P1;durP1;ratioP1;P2;durP2;ratioP2
63807;SDS011;49961;43.970;22.868;2024-01-30T00:00:36;9.27;;;4.63;;
63807;SDS011;49961;43.970;22.868;2024-01-30T00:01:37;13.03;;;5.50;;
63807;SDS011;49961;43.970;22.868;2024-01-30T00:02:37;12.17;;;5.27;;
63807;SDS011;49961;43.970;22.868;2024-01-30T00:03:38;8.63;;;5.47;;
63807;SDS011;49961;43.970;22.868;2024-01-30T00:04:38;9.67;;;4.70;;
63807;SDS011;49961;43.970;22.868;2024-01-30T00:05:39;9.37;;;5.00;;
63807;SDS011;49961;43.970;22.868;2024-01-30T00:06:39;12.43;;;5.40;;
63807;SDS011;49961;43.970;22.868;2024-01-30T00:07:40;9.67;;;5.13;;
63807;SDS011;49961;43.970;22.868;2024-01-30T00:08:40;9.07;;;4.80;;
63807;SDS011;49961;43.970;22.868;2024-01-30T00:09:41;9.50;;;4.67;;
63807;SDS011;49961;43.970;22.868;2024-01-30T00:10:42;9.40;;;5.13;;
63807;SDS011;49961;43.970;22.868;2024-01-30T00:11:42;10.53;;;5.57;;
63807;SDS011;49961;43.970;22.868;2024-01-30T00:12:43;12.67;;;5.30;;
63807;SDS011;49961;43.970;22.868;2024-01-30T00:13:43;9.60;;;4.90;;
63807;SDS011;49961;43.970;22.868;2024-01-30T00:14:44;9.27;;;4.77;;
63807;SDS011;49961;43.970;22.868;2024-01-30T00:15:44;11.97;;;5.60;;
63807;SDS011;49961;43.970;22.868;2024-01-30T00:16:44;10.33;;;4.87;;
63807;SDS011;49961;43.970;22.868;2024-01-30T00:17:45;10.50;;;4.17;;
63807;SDS011;49961;43.970;22.868;2024-01-30T00:18:46;9.23;;;4.70;;
63807;SDS011;49961;43.970;22.868;2024-01-30T00:19:46;8.67;;;5.30;;
63807;SDS011;49961;43.970;22.868;2024-01-30T00:20:47;12.03;;;5.67;;
63807;SDS011;49961;43.970;22.868;2024-01-30T00:21:47;7.50;;;4.13;;
63807;SDS011;49961;43.970;22.868;2024-01-30T00:22:48;11.33;;;5.03;;
63807;SDS011;49961;43.970;22.868;2024-01-30T00:23:50;10.43;;;4.67;;
63807;SDS011;49961;43.970;22.868;2024-01-30T00:24:50;11.13;;;4.72;;
63807;SDS011;49961;43.970;22.868;2024-01-30T00:25:51;9.93;;;5.40;;
63807;SDS011;49961;43.970;22.868;2024-01-30T00:26:51;11.17;;;5.37;;
63807;SDS011;49961;43.970;22.868;2024-01-30T00:27:52;8.43;;;5.03;;
63807;SDS011;49961;43.970;22.868;2024-01-30T00:28:52;10.43;;;4.83;;
63807;SDS011;49961;43.970;22.868;2024-01-30T00:29:53;8.47;;;5.10;;
63807;SDS011;49961;43.970;22.868;2024-01-30T00:30:53;10.50;;;4.87;;
63807;SDS011;49961;43.970;22.868;2024-01-30T00:31:54;10.50;;;5.40;;
63807;SDS011;49961;43.970;22.868;2024-01-30T00:32:54;12.10;;;4.43;;
63807;SDS011;49961;43.970;22.868;2024-01-30T00:33:55;9.73;;;4.77;;
63807;SDS011;49961;43.970;22.868;2024-01-30T00:34:56;8.87;;;5.07;;
63807;SDS011;49961;43.970;22.868;2024-01-30T00:35:56;12.47;;;5.20;;
63807;SDS011;49961;43.970;22.868;2024-01-30T00:36:56;10.13;;;5.10;;
63807;SDS011;49961;43.970;22.868;2024-01-30T00:37:57;10.90;;;5.00;;
63807;SDS011;49961;43.970;22.868;2024-01-30T00:38:57;9.33;;;4.53;;
63807;SDS011;49961;43.970;22.868;2024-01-30T00:39:58;9.83;;;4.83;;
63807;SDS011;49961;43.970;22.868;2024-01-30T00:40:58;8.20;;;4.77;;
63807;SDS011;49961;43.970;22.868;2024-01-30T00:41:59;9.27;;;4.77;;
63807;SDS011;49961;43.970;22.868;2024-01-30T00:42:59;8.87;;;4.63;;
63807;SDS011;49961;43.970;22.868;2024-01-30T00:44:00;8.37;;;4.13;;
63807;SDS011;49961;43.970;22.868;2024-01-30T00:45:01;9.47;;;4.33;;
63807;SDS011;49961;43.970;22.868;2024-01-30T00:46:01;9.83;;;5.43;;
63807;SDS011;49961;43.970;22.868;2024-01-30T00:47:02;9.00;;;4.77;;
63807;SDS011;49961;43.970;22.868;2024-01-30T00:48:03;10.07;;;4.75;;
63807;SDS011;49961;43.970;22.868;2024-01-30T00:49:04;9.07;;;4.63;;
63807;SDS011;49961;43.970;22.868;2024-01-30T00:50:04;9.00;;;4.77;;
63807;SDS011;49961;43.970;22.868;2024-01-30T00:51:05;9.60;;;4.78;;
63807;SDS011;49961;43.970;22.868;2024-01-30T00:52:06;11.30;;;4.87;;
63807;SDS011;49961;43.970;22.868;2024-01-30T00:53:06;9.77;;;5.00;;
63807;SDS011;49961;43.970;22.868;2024-01-30T00:54:07;10.13;;;5.20;;
63807;SDS011;49961;43.970;22.868;2024-01-30T00:55:08;8.73;;;4.17;;
63807;SDS011;49961;43.970;22.868;2024-01-30T00:56:08;8.03;;;4.73;;
63807;SDS011;49961;43.970;22.868;2024-01-30T00:57:09;8.50;;;4.67;;
63807;SDS011;49961;43.970;22.868;2024-01-30T00:58:09;8.80;;;4.73;;
63807;SDS011;49961;43.970;22.868;2024-01-30T00:59:10;7.00;;;4.37;;
63807;SDS011;49961;43.970;22.868;2024-01-30T01:00:12;8.65;;;4.97;;
63807;SDS011;49961;43.970;22.868;2024-01-30T01:01:13;8.30;;;4.43;;
63807;SDS011;49961;43.970;22.868;2024-01-30T01:02:14;10.07;;;4.60;;
63807;SDS011;49961;43.970;22.868;2024-01-30T01:03:17;8.75;;;4.95;;
63807;SDS011;49961;43.970;22.868;2024-01-30T01:04:17;10.17;;;4.40;;
63807;SDS011;49961;43.970;22.868;2024-01-30T01:05:18;11.03;;;5.67;;
63807;SDS011;49961;43.970;22.868;2024-01-30T01:06:18;10.57;;;5.17;;
63807;SDS011;49961;43.970;22.868;2024-01-30T01:07:19;9.30;;;4.63;;
63807;SDS011;49961;43.970;22.868;2024-01-30T01:08:20;9.00;;;4.40;;
63807;SDS011;49961;43.970;22.868;2024-01-30T01:09:20;10.90;;;5.87;;
63807;SDS011;49961;43.970;22.868;2024-01-30T01:10:21;9.53;;;5.80;;
63807;SDS011;49961;43.970;22.868;2024-01-30T01:11:22;10.23;;;5.28;;
63807;SDS011;49961;43.970;22.868;2024-01-30T01:12:23;9.87;;;5.13;;
63807;SDS011;49961;43.970;22.868;2024-01-30T01:13:23;8.57;;;4.70;;
63807;SDS011;49961;43.970;22.868;2024-01-30T01:14:24;10.63;;;4.37;;
63807;SDS011;49961;43.970;22.868;2024-01-30T01:15:25;10.50;;;4.68;;
63807;SDS011;49961;43.970;22.868;2024-01-30T01:16:26;12.73;;;5.53;;
63807;SDS011;49961;43.970;22.868;2024-01-30T01:17:26;11.70;;;6.13;;
63807;SDS011;49961;43.970;22.868;2024-01-30T01:18:27;11.77;;;5.27;;
63807;SDS011;49961;43.970;22.868;2024-01-30T01:19:27;10.87;;;5.67;;
63807;SDS011;49961;43.970;22.868;2024-01-30T01:20:28;7.37;;;4.43;;
63807;SDS011;49961;43.970;22.868;2024-01-30T01:21:28;7.17;;;4.50;;
63807;SDS011;49961;43.970;22.868;2024-01-30T01:22:29;10.10;;;4.80;;
63807;SDS011;49961;43.970;22.868;2024-01-30T01:23:48;10.55;;;6.53;;
63807;SDS011;49961;43.970;22.868;2024-01-30T01:24:48;10.90;;;6.47;;
63807;SDS011;49961;43.970;22.868;2024-01-30T01:25:49;11.30;;;6.17;;
63807;SDS011;49961;43.970;22.868;2024-01-30T01:26:49;11.63;;;6.63;;
63807;SDS011;49961;43.970;22.868;2024-01-30T01:27:50;10.20;;;6.37;;
63807;SDS011;49961;43.970;22.868;2024-01-30T01:28:53;9.43;;;5.13;;
63807;SDS011;49961;43.970;22.868;2024-01-30T01:29:54;10.80;;;5.30;;
63807;SDS011;49961;43.970;22.868;2024-01-30T01:30:54;8.27;;;4.70;;
63807;SDS011;49961;43.970;22.868;2024-01-30T01:31:59;10.10;;;5.03;;
63807;SDS011;49961;43.970;22.868;2024-01-30T01:32:59;9.53;;;4.87;;
63807;SDS011;49961;43.970;22.868;2024-01-30T01:34:02;9.95;;;4.60;;
63807;SDS011;49961;43.970;22.868;2024-01-30T01:35:03;10.40;;;5.40;;
63807;SDS011;49961;43.970;22.868;2024-01-30T01:36:05;7.85;;;4.55;;
63807;SDS011;49961;43.970;22.868;2024-01-30T01:37:06;9.95;;;4.63;;
63807;SDS011;49961;43.970;22.868;2024-01-30T01:38:07;9.73;;;5.20;;
63807;SDS011;49961;43.970;22.868;2024-01-30T01:39:08;15.07;;;5.87;;
63807;SDS011;49961;43.970;22.868;2024-01-30T01:40:08;12.17;;;6.47;;
63807;SDS011;49961;43.970;22.868;2024-01-30T01:41:09;10.17;;;5.20;;
63807;SDS011;49961;43.970;22.868;2024-01-30T01:42:09;9.37;;;5.13;;
63807;SDS011;49961;43.970;22.868;2024-01-30T01:43:10;8.40;;;4.60;;
63807;SDS011;49961;43.970;22.868;2024-01-30T01:44:10;9.87;;;5.33;;
63807;SDS011;49961;43.970;22.868;2024-01-30T01:45:11;10.47;;;5.23;;
63807;SDS011;49961;43.970;22.868;2024-01-30T01:46:11;7.77;;;4.80;;
63807;SDS011;49961;43.970;22.868;2024-01-30T01:47:12;8.53;;;4.63;;
63807;SDS011;49961;43.970;22.868;2024-01-30T01:48:13;10.63;;;5.37;;
63807;SDS011;49961;43.970;22.868;2024-01-30T01:49:13;9.00;;;4.83;;
63807;SDS011;49961;43.970;22.868;2024-01-30T01:50:15;11.07;;;5.40;;
63807;SDS011;49961;43.970;22.868;2024-01-30T01:51:18;11.90;;;5.68;;
63807;SDS011;49961;43.970;22.868;2024-01-30T01:52:19;9.18;;;4.90;;
63807;SDS011;49961;43.970;22.868;2024-01-30T01:53:20;8.20;;;4.87;;
63807;SDS011;49961;43.970;22.868;2024-01-30T01:54:21;11.35;;;4.53;;
63807;SDS011;49961;43.970;22.868;2024-01-30T01:55:22;12.48;;;5.55;;
63807;SDS011;49961;43.970;22.868;2024-01-30T01:56:24;9.68;;;4.82;;
63807;SDS011;49961;43.970;22.868;2024-01-30T01:57:26;12.20;;;6.18;;
63807;SDS011;49961;43.970;22.868;2024-01-30T01:58:27;9.93;;;4.73;;
63807;SDS011;49961;43.970;22.868;2024-01-30T01:59:29;10.15;;;5.22;;
63807;SDS011;49961;43.970;22.868;2024-01-30T02:00:30;9.93;;;5.00;;
63807;SDS011;49961;43.970;22.868;2024-01-30T02:01:32;10.57;;;4.95;;
63807;SDS011;49961;43.970;22.868;2024-01-30T02:02:34;10.85;;;4.65;;
63807;SDS011;49961;43.970;22.868;2024-01-30T02:03:36;10.57;;;5.90;;
63807;SDS011;49961;43.970;22.868;2024-01-30T02:04:38;9.35;;;4.72;;
63807;SDS011;49961;43.970;22.868;2024-01-30T02:05:39;10.97;;;5.90;;
63807;SDS011;49961;43.970;22.868;2024-01-30T02:06:41;10.35;;;6.28;;
63807;SDS011;49961;43.970;22.868;2024-01-30T02:07:43;10.13;;;5.03;;
63807;SDS011;49961;43.970;22.868;2024-01-30T02:08:44;8.57;;;4.57;;
63807;SDS011;49961;43.970;22.868;2024-01-30T02:09:44;8.40;;;4.77;;
63807;SDS011;49961;43.970;22.868;2024-01-30T02:10:45;10.23;;;5.13;;
63807;SDS011;49961;43.970;22.868;2024-01-30T02:11:45;9.23;;;4.47;;
63807;SDS011;49961;43.970;22.868;2024-01-30T02:12:46;10.60;;;5.47;;
63807;SDS011;49961;43.970;22.868;2024-01-30T02:13:46;10.10;;;5.60;;
63807;SDS011;49961;43.970;22.868;2024-01-30T02:14:47;10.70;;;5.53;;
63807;SDS011;49961;43.970;22.868;2024-01-30T02:15:49;9.38;;;4.80;;
63807;SDS011;49961;43.970;22.868;2024-01-30T02:16:50;9.63;;;5.32;;
63807;SDS011;49961;43.970;22.868;2024-01-30T02:17:51;8.93;;;4.40;;
63807;SDS011;49961;43.970;22.868;2024-01-30T02:18:51;9.50;;;5.40;;
63807;SDS011;49961;43.970;22.868;2024-01-30T02:19:52;10.40;;;5.30;;
63807;SDS011;49961;43.970;22.868;2024-01-30T02:20:53;9.87;;;5.47;;
63807;SDS011;49961;43.970;22.868;2024-01-30T02:21:56;12.35;;;6.85;;
63807;SDS011;49961;43.970;22.868;2024-01-30T02:22:56;9.53;;;4.73;;
63807;SDS011;49961;43.970;22.868;2024-01-30T02:24:01;11.00;;;6.85;;
63807;SDS011;49961;43.970;22.868;2024-01-30T02:25:03;11.45;;;5.43;;
63807;SDS011;49961;43.970;22.868;2024-01-30T02:26:03;10.20;;;5.07;;
63807;SDS011;49961;43.970;22.868;2024-01-30T02:27:04;11.53;;;6.80;;
63807;SDS011;49961;43.970;22.868;2024-01-30T02:28:04;10.93;;;6.57;;
63807;SDS011;49961;43.970;22.868;2024-01-30T02:29:05;13.10;;;6.43;;
63807;SDS011;49961;43.970;22.868;2024-01-30T02:30:06;13.90;;;6.73;;
63807;SDS011;49961;43.970;22.868;2024-01-30T02:31:07;11.00;;;5.90;;
63807;SDS011;49961;43.970;22.868;2024-01-30T02:32:07;12.17;;;5.90;;
63807;SDS011;49961;43.970;22.868;2024-01-30T02:33:08;11.67;;;6.13;;
63807;SDS011;49961;43.970;22.868;2024-01-30T02:34:08;9.93;;;6.07;;
63807;SDS011;49961;43.970;22.868;2024-01-30T02:35:09;9.27;;;6.47;;
63807;SDS011;49961;43.970;22.868;2024-01-30T02:36:09;10.97;;;5.73;;
63807;SDS011;49961;43.970;22.868;2024-01-30T02:37:10;8.70;;;5.73;;
63807;SDS011;49961;43.970;22.868;2024-01-30T02:38:10;10.07;;;5.40;;
63807;SDS011;49961;43.970;22.868;2024-01-30T02:39:11;9.80;;;6.00;;
63807;SDS011;49961;43.970;22.868;2024-01-30T02:40:11;8.47;;;5.10;;
63807;SDS011;49961;43.970;22.868;2024-01-30T02:41:12;11.70;;;6.27;;
63807;SDS011;49961;43.970;22.868;2024-01-30T02:42:13;11.60;;;4.97;;
63807;SDS011;49961;43.970;22.868;2024-01-30T02:43:13;11.13;;;6.17;;
63807;SDS011;49961;43.970;22.868;2024-01-30T02:44:14;10.07;;;6.43;;
63807;SDS011;49961;43.970;22.868;2024-01-30T02:45:14;10.27;;;4.70;;
63807;SDS011;49961;43.970;22.868;2024-01-30T02:46:15;10.47;;;6.43;;
63807;SDS011;49961;43.970;22.868;2024-01-30T02:47:15;10.93;;;5.27;;
63807;SDS011;49961;43.970;22.868;2024-01-30T02:48:16;7.83;;;4.80;;
63807;SDS011;49961;43.970;22.868;2024-01-30T02:49:16;11.83;;;6.47;;
63807;SDS011;49961;43.970;22.868;2024-01-30T02:50:17;7.63;;;4.87;;
63807;SDS011;49961;43.970;22.868;2024-01-30T02:51:17;10.67;;;5.47;;
63807;SDS011;49961;43.970;22.868;2024-01-30T02:52:18;9.63;;;5.33;;
63807;SDS011;49961;43.970;22.868;2024-01-30T02:53:20;9.77;;;4.82;;
63807;SDS011;49961;43.970;22.868;2024-01-30T02:54:20;8.77;;;5.10;;
63807;SDS011;49961;43.970;22.868;2024-01-30T02:55:21;9.20;;;4.67;;
63807;SDS011;49961;43.970;22.868;2024-01-30T02:56:21;9.23;;;5.50;;
63807;SDS011;49961;43.970;22.868;2024-01-30T02:57:22;10.23;;;5.70;;
63807;SDS011;49961;43.970;22.868;2024-01-30T02:58:22;11.27;;;6.80;;
63807;SDS011;49961;43.970;22.868;2024-01-30T02:59:23;15.73;;;7.50;;
63807;SDS011;49961;43.970;22.868;2024-01-30T03:00:23;12.40;;;6.17;;
63807;SDS011;49961;43.970;22.868;2024-01-30T03:01:24;12.13;;;6.47;;
63807;SDS011;49961;43.970;22.868;2024-01-30T03:02:25;13.77;;;6.73;;
63807;SDS011;49961;43.970;22.868;2024-01-30T03:03:25;12.40;;;7.03;;
63807;SDS011;49961;43.970;22.868;2024-01-30T03:04:26;16.20;;;7.23;;
63807;SDS011;49961;43.970;22.868;2024-01-30T03:05:26;17.50;;;7.57;;
63807;SDS011;49961;43.970;22.868;2024-01-30T03:06:27;11.27;;;6.67;;
63807;SDS011;49961;43.970;22.868;2024-01-30T03:07:27;13.63;;;6.70;;
63807;SDS011;49961;43.970;22.868;2024-01-30T03:08:28;13.43;;;7.03;;
63807;SDS011;49961;43.970;22.868;2024-01-30T03:09:28;12.33;;;7.33;;
63807;SDS011;49961;43.970;22.868;2024-01-30T03:10:29;11.47;;;6.33;;
63807;SDS011;49961;43.970;22.868;2024-01-30T03:11:29;10.03;;;6.43;;
63807;SDS011;49961;43.970;22.868;2024-01-30T03:12:30;13.02;;;6.85;;
63807;SDS011;49961;43.970;22.868;2024-01-30T03:13:31;13.60;;;6.23;;
63807;SDS011;49961;43.970;22.868;2024-01-30T03:14:31;11.30;;;6.20;;
63807;SDS011;49961;43.970;22.868;2024-01-30T03:15:32;10.30;;;6.10;;
63807;SDS011;49961;43.970;22.868;2024-01-30T03:16:32;12.03;;;6.73;;
63807;SDS011;49961;43.970;22.868;2024-01-30T03:17:33;13.07;;;6.23;;
63807;SDS011;49961;43.970;22.868;2024-01-30T03:18:33;11.50;;;6.13;;
63807;SDS011;49961;43.970;22.868;2024-01-30T03:19:34;12.07;;;6.20;;
63807;SDS011;49961;43.970;22.868;2024-01-30T03:20:34;10.13;;;5.57;;
63807;SDS011;49961;43.970;22.868;2024-01-30T03:21:35;15.87;;;7.63;;
63807;SDS011;49961;43.970;22.868;2024-01-30T03:22:35;14.23;;;7.47;;
63807;SDS011;49961;43.970;22.868;2024-01-30T03:23:36;11.43;;;6.03;;
63807;SDS011;49961;43.970;22.868;2024-01-30T03:24:36;10.00;;;6.33;;
63807;SDS011;49961;43.970;22.868;2024-01-30T03:25:37;13.00;;;5.20;;
63807;SDS011;49961;43.970;22.868;2024-01-30T03:26:37;9.17;;;5.53;;
63807;SDS011;49961;43.970;22.868;2024-01-30T03:27:38;11.43;;;6.37;;
63807;SDS011;49961;43.970;22.868;2024-01-30T03:28:38;11.73;;;7.33;;
63807;SDS011;49961;43.970;22.868;2024-01-30T03:29:39;16.27;;;6.90;;
63807;SDS011;49961;43.970;22.868;2024-01-30T03:30:39;13.93;;;7.00;;
63807;SDS011;49961;43.970;22.868;2024-01-30T03:31:40;11.97;;;6.37;;
63807;SDS011;49961;43.970;22.868;2024-01-30T03:32:40;10.40;;;5.80;;
63807;SDS011;49961;43.970;22.868;2024-01-30T03:33:41;12.73;;;6.10;;
63807;SDS011;49961;43.970;22.868;2024-01-30T03:34:41;12.57;;;7.27;;
63807;SDS011;49961;43.970;22.868;2024-01-30T03:35:42;9.20;;;5.30;;
63807;SDS011;49961;43.970;22.868;2024-01-30T03:36:43;12.30;;;5.53;;
63807;SDS011;49961;43.970;22.868;2024-01-30T03:37:43;11.73;;;6.63;;
63807;SDS011;49961;43.970;22.868;2024-01-30T03:38:43;8.50;;;5.27;;
63807;SDS011;49961;43.970;22.868;2024-01-30T03:39:44;14.43;;;6.40;;
63807;SDS011;49961;43.970;22.868;2024-01-30T03:40:45;11.50;;;6.53;;
63807;SDS011;49961;43.970;22.868;2024-01-30T03:41:45;8.83;;;5.27;;
63807;SDS011;49961;43.970;22.868;2024-01-30T03:42:46;10.83;;;6.20;;
63807;SDS011;49961;43.970;22.868;2024-01-30T03:43:46;9.90;;;5.80;;
63807;SDS011;49961;43.970;22.868;2024-01-30T03:44:47;12.27;;;6.37;;
63807;SDS011;49961;43.970;22.868;2024-01-30T03:45:47;13.10;;;6.03;;
63807;SDS011;49961;43.970;22.868;2024-01-30T03:46:48;12.00;;;6.43;;
63807;SDS011;49961;43.970;22.868;2024-01-30T03:47:49;12.87;;;6.37;;
63807;SDS011;49961;43.970;22.868;2024-01-30T03:48:49;10.87;;;6.07;;
63807;SDS011;49961;43.970;22.868;2024-01-30T03:49:49;10.00;;;6.60;;
63807;SDS011;49961;43.970;22.868;2024-01-30T03:50:50;14.17;;;6.47;;
63807;SDS011;49961;43.970;22.868;2024-01-30T03:51:50;11.43;;;6.43;;
63807;SDS011;49961;43.970;22.868;2024-01-30T03:52:51;12.97;;;6.27;;
63807;SDS011;49961;43.970;22.868;2024-01-30T03:53:51;10.67;;;5.70;;
63807;SDS011;49961;43.970;22.868;2024-01-30T03:54:52;12.40;;;6.63;;
63807;SDS011;49961;43.970;22.868;2024-01-30T03:55:52;13.33;;;5.80;;
63807;SDS011;49961;43.970;22.868;2024-01-30T03:56:53;11.90;;;5.40;;
63807;SDS011;49961;43.970;22.868;2024-01-30T03:57:54;12.17;;;7.47;;
63807;SDS011;49961;43.970;22.868;2024-01-30T03:58:54;12.30;;;6.43;;
63807;SDS011;49961;43.970;22.868;2024-01-30T03:59:55;10.98;;;6.60;;
63807;SDS011;49961;43.970;22.868;2024-01-30T04:00:56;10.00;;;5.57;;
63807;SDS011;49961;43.970;22.868;2024-01-30T04:01:56;11.80;;;5.83;;
63807;SDS011;49961;43.970;22.868;2024-01-30T04:02:57;11.77;;;5.77;;
63807;SDS011;49961;43.970;22.868;2024-01-30T04:03:57;11.17;;;5.40;;
63807;SDS011;49961;43.970;22.868;2024-01-30T04:04:58;10.40;;;5.50;;
63807;SDS011;49961;43.970;22.868;2024-01-30T04:05:58;10.47;;;5.47;;
63807;SDS011;49961;43.970;22.868;2024-01-30T04:06:59;9.80;;;5.60;;
63807;SDS011;49961;43.970;22.868;2024-01-30T04:07:59;10.57;;;5.40;;
63807;SDS011;49961;43.970;22.868;2024-01-30T04:09:00;8.50;;;5.73;;
63807;SDS011;49961;43.970;22.868;2024-01-30T04:10:01;9.07;;;5.13;;
63807;SDS011;49961;43.970;22.868;2024-01-30T04:11:05;8.70;;;5.57;;
63807;SDS011;49961;43.970;22.868;2024-01-30T04:12:06;11.77;;;6.28;;
63807;SDS011;49961;43.970;22.868;2024-01-30T04:13:06;10.57;;;6.23;;
63807;SDS011;49961;43.970;22.868;2024-01-30T04:14:07;9.70;;;4.90;;
63807;SDS011;49961;43.970;22.868;2024-01-30T04:15:08;13.82;;;5.72;;
63807;SDS011;49961;43.970;22.868;2024-01-30T04:16:18;9.33;;;4.67;;
63807;SDS011;49961;43.970;22.868;2024-01-30T04:17:20;11.35;;;6.18;;
63807;SDS011;49961;43.970;22.868;2024-01-30T04:18:20;11.13;;;5.67;;
63807;SDS011;49961;43.970;22.868;2024-01-30T04:19:21;9.37;;;5.57;;
63807;SDS011;49961;43.970;22.868;2024-01-30T04:20:21;10.40;;;5.80;;
63807;SDS011;49961;43.970;22.868;2024-01-30T04:21:22;10.70;;;6.17;;
63807;SDS011;49961;43.970;22.868;2024-01-30T04:22:22;11.73;;;6.43;;
63807;SDS011;49961;43.970;22.868;2024-01-30T04:23:23;12.10;;;6.20;;
63807;SDS011;49961;43.970;22.868;2024-01-30T04:24:23;10.70;;;5.20;;
63807;SDS011;49961;43.970;22.868;2024-01-30T04:25:24;9.70;;;5.23;;
63807;SDS011;49961;43.970;22.868;2024-01-30T04:26:24;16.63;;;5.70;;
63807;SDS011;49961;43.970;22.868;2024-01-30T04:27:25;10.47;;;4.93;;
63807;SDS011;49961;43.970;22.868;2024-01-30T04:28:25;11.33;;;4.93;;
63807;SDS011;49961;43.970;22.868;2024-01-30T04:29:26;10.80;;;5.77;;
63807;SDS011;49961;43.970;22.868;2024-01-30T04:30:26;9.67;;;5.23;;
63807;SDS011;49961;43.970;22.868;2024-01-30T04:31:27;10.87;;;6.03;;
63807;SDS011;49961;43.970;22.868;2024-01-30T04:32:27;8.93;;;4.70;;
63807;SDS011;49961;43.970;22.868;2024-01-30T04:33:28;11.37;;;6.00;;
63807;SDS011;49961;43.970;22.868;2024-01-30T04:34:28;9.57;;;5.50;;
63807;SDS011;49961;43.970;22.868;2024-01-30T04:35:29;9.60;;;5.37;;
63807;SDS011;49961;43.970;22.868;2024-01-30T04:36:29;11.37;;;5.17;;
63807;SDS011;49961;43.970;22.868;2024-01-30T04:37:30;12.03;;;5.87;;
63807;SDS011;49961;43.970;22.868;2024-01-30T04:38:31;11.65;;;6.10;;
63807;SDS011;49961;43.970;22.868;2024-01-30T04:39:34;9.43;;;5.83;;
63807;SDS011;49961;43.970;22.868;2024-01-30T04:40:35;14.48;;;6.60;;
63807;SDS011;49961;43.970;22.868;2024-01-30T04:41:35;9.60;;;5.10;;
63807;SDS011;49961;43.970;22.868;2024-01-30T04:42:36;9.03;;;5.20;;
63807;SDS011;49961;43.970;22.868;2024-01-30T04:43:36;9.40;;;5.30;;
63807;SDS011;49961;43.970;22.868;2024-01-30T04:44:38;12.13;;;5.38;;
63807;SDS011;49961;43.970;22.868;2024-01-30T04:45:38;11.87;;;6.17;;
63807;SDS011;49961;43.970;22.868;2024-01-30T04:46:39;11.93;;;5.90;;
63807;SDS011;49961;43.970;22.868;2024-01-30T04:47:40;8.83;;;5.57;;
63807;SDS011;49961;43.970;22.868;2024-01-30T04:48:40;10.73;;;5.37;;
63807;SDS011;49961;43.970;22.868;2024-01-30T04:49:41;8.70;;;4.67;;
63807;SDS011;49961;43.970;22.868;2024-01-30T04:50:42;11.68;;;5.28;;
63807;SDS011;49961;43.970;22.868;2024-01-30T04:51:42;13.37;;;6.20;;
63807;SDS011;49961;43.970;22.868;2024-01-30T04:52:44;9.90;;;6.07;;
63807;SDS011;49961;43.970;22.868;2024-01-30T04:53:44;15.63;;;7.17;;
63807;SDS011;49961;43.970;22.868;2024-01-30T04:54:45;16.70;;;7.13;;
63807;SDS011;49961;43.970;22.868;2024-01-30T04:55:46;12.40;;;6.73;;
63807;SDS011;49961;43.970;22.868;2024-01-30T04:56:46;12.00;;;6.03;;
63807;SDS011;49961;43.970;22.868;2024-01-30T04:57:46;10.73;;;5.73;;
63807;SDS011;49961;43.970;22.868;2024-01-30T04:58:47;15.90;;;7.90;;
63807;SDS011;49961;43.970;22.868;2024-01-30T04:59:48;11.20;;;6.47;;
63807;SDS011;49961;43.970;22.868;2024-01-30T05:00:48;11.63;;;6.13;;
63807;SDS011;49961;43.970;22.868;2024-01-30T05:01:51;14.32;;;6.75;;
63807;SDS011;49961;43.970;22.868;2024-01-30T05:02:52;15.07;;;6.90;;
63807;SDS011;49961;43.970;22.868;2024-01-30T05:03:52;13.93;;;7.57;;
63807;SDS011;49961;43.970;22.868;2024-01-30T05:04:53;13.10;;;6.67;;
63807;SDS011;49961;43.970;22.868;2024-01-30T05:05:53;13.90;;;6.80;;
63807;SDS011;49961;43.970;22.868;2024-01-30T05:06:54;13.60;;;6.87;;
63807;SDS011;49961;43.970;22.868;2024-01-30T05:07:54;14.37;;;7.40;;
63807;SDS011;49961;43.970;22.868;2024-01-30T05:08:55;16.37;;;7.43;;
63807;SDS011;49961;43.970;22.868;2024-01-30T05:09:55;16.17;;;7.63;;
63807;SDS011;49961;43.970;22.868;2024-01-30T05:10:56;18.63;;;7.80;;
63807;SDS011;49961;43.970;22.868;2024-01-30T05:11:59;14.43;;;7.20;;
63807;SDS011;49961;43.970;22.868;2024-01-30T05:13:00;15.50;;;7.93;;
63807;SDS011;49961;43.970;22.868;2024-01-30T05:14:00;13.70;;;7.00;;
63807;SDS011;49961;43.970;22.868;2024-01-30T05:15:01;13.67;;;6.63;;
63807;SDS011;49961;43.970;22.868;2024-01-30T05:16:02;16.73;;;8.97;;
63807;SDS011;49961;43.970;22.868;2024-01-30T05:17:04;12.43;;;6.65;;
63807;SDS011;49961;43.970;22.868;2024-01-30T05:18:04;13.70;;;7.43;;
63807;SDS011;49961;43.970;22.868;2024-01-30T05:19:05;16.57;;;6.47;;
63807;SDS011;49961;43.970;22.868;2024-01-30T05:20:05;10.93;;;6.23;;
63807;SDS011;49961;43.970;22.868;2024-01-30T05:21:07;13.43;;;6.13;;
63807;SDS011;49961;43.970;22.868;2024-01-30T05:22:08;19.40;;;10.43;;
63807;SDS011;49961;43.970;22.868;2024-01-30T05:23:09;23.23;;;11.20;;
63807;SDS011;49961;43.970;22.868;2024-01-30T05:24:09;18.57;;;9.67;;
63807;SDS011;49961;43.970;22.868;2024-01-30T05:25:11;17.43;;;9.53;;
63807;SDS011;49961;43.970;22.868;2024-01-30T05:26:13;17.70;;;8.57;;
63807;SDS011;49961;43.970;22.868;2024-01-30T05:27:13;22.43;;;9.40;;
63807;SDS011;49961;43.970;22.868;2024-01-30T05:28:14;32.10;;;9.23;;
63807;SDS011;49961;43.970;22.868;2024-01-30T05:29:14;19.27;;;10.73;;
63807;SDS011;49961;43.970;22.868;2024-01-30T05:30:15;17.10;;;9.10;;
63807;SDS011;49961;43.970;22.868;2024-01-30T05:31:15;18.40;;;9.77;;
63807;SDS011;49961;43.970;22.868;2024-01-30T05:32:16;17.10;;;9.57;;
63807;SDS011;49961;43.970;22.868;2024-01-30T05:33:17;16.07;;;9.23;;
63807;SDS011;49961;43.970;22.868;2024-01-30T05:34:17;19.10;;;8.67;;
63807;SDS011;49961;43.970;22.868;2024-01-30T05:35:18;27.73;;;12.03;;
63807;SDS011;49961;43.970;22.868;2024-01-30T05:36:21;19.75;;;10.25;;
63807;SDS011;49961;43.970;22.868;2024-01-30T05:37:21;29.53;;;14.23;;
63807;SDS011;49961;43.970;22.868;2024-01-30T05:38:22;23.63;;;12.27;;
63807;SDS011;49961;43.970;22.868;2024-01-30T05:39:23;25.77;;;11.83;;
63807;SDS011;49961;43.970;22.868;2024-01-30T05:40:23;27.03;;;12.80;;
63807;SDS011;49961;43.970;22.868;2024-01-30T05:41:24;31.83;;;13.70;;
63807;SDS011;49961;43.970;22.868;2024-01-30T05:42:24;24.47;;;12.97;;
63807;SDS011;49961;43.970;22.868;2024-01-30T05:43:27;25.50;;;12.00;;
63807;SDS011;49961;43.970;22.868;2024-01-30T05:44:27;28.77;;;12.10;;
63807;SDS011;49961;43.970;22.868;2024-01-30T05:45:28;23.53;;;11.43;;
63807;SDS011;49961;43.970;22.868;2024-01-30T05:46:28;29.47;;;13.33;;
63807;SDS011;49961;43.970;22.868;2024-01-30T05:47:29;23.87;;;12.10;;
63807;SDS011;49961;43.970;22.868;2024-01-30T05:48:29;23.03;;;11.80;;
63807;SDS011;49961;43.970;22.868;2024-01-30T05:49:30;25.43;;;12.63;;
63807;SDS011;49961;43.970;22.868;2024-01-30T05:50:31;23.00;;;13.10;;
63807;SDS011;49961;43.970;22.868;2024-01-30T05:51:31;22.83;;;12.20;;
63807;SDS011;49961;43.970;22.868;2024-01-30T05:52:32;26.17;;;13.27;;
63807;SDS011;49961;43.970;22.868;2024-01-30T05:53:33;24.40;;;13.37;;
63807;SDS011;49961;43.970;22.868;2024-01-30T05:54:33;27.57;;;12.43;;
63807;SDS011;49961;43.970;22.868;2024-01-30T05:55:34;19.97;;;9.63;;
63807;SDS011;49961;43.970;22.868;2024-01-30T05:56:34;16.03;;;7.77;;
63807;SDS011;49961;43.970;22.868;2024-01-30T05:57:35;14.27;;;7.23;;